createdAt,value
2022-09-26T00:04:16.730Z,97121.22
2022-09-26T00:09:19.351Z,97080.88
2022-09-26T00:14:25.262Z,97037.13
2022-09-26T00:19:27.797Z,96992.38
2022-09-26T00:24:31.006Z,96967.84
2022-09-26T00:29:34.868Z,96946.81
2022-09-26T00:34:37.492Z,96910.88
2022-09-26T00:39:40.084Z,96854.78
2022-09-26T00:44:46.899Z,96841.75
2022-09-26T00:49:50.815Z,96806.66
2022-09-26T00:54:55.784Z,96776.00
2022-09-26T01:00:02.589Z,96755.94
2022-09-26T01:05:06.804Z,96744.66
2022-09-26T01:10:10.362Z,96732.41
2022-09-26T01:15:15.651Z,96703.47
2022-09-26T01:20:35.122Z,96675.59
2022-09-26T01:26:00.026Z,96647.59
2022-09-26T01:31:12.668Z,96638.97
2022-09-26T01:36:44.887Z,96613.63
2022-09-26T01:41:54.185Z,96582.84
2022-09-26T01:47:00.307Z,96552.22
2022-09-26T01:52:06.738Z,96530.25
2022-09-26T01:57:11.531Z,96488.25
2022-09-26T02:02:20.091Z,96455.88
2022-09-26T02:07:25.967Z,96403.03
2022-09-26T02:12:32.761Z,96389.06
2022-09-26T02:17:39.373Z,96361.94
2022-09-26T02:22:42.695Z,96329.44
2022-09-26T02:27:45.307Z,96310.88
2022-09-26T02:32:49.503Z,96288.16
2022-09-26T02:37:52.422Z,96260.94
2022-09-26T02:43:02.763Z,96239.09
2022-09-26T02:48:25.525Z,96207.50
2022-09-26T02:53:47.094Z,96184.59
2022-09-26T02:58:59.515Z,96171.38
2022-09-26T03:04:09.479Z,96161.06
2022-09-26T03:09:13.437Z,96137.34
2022-09-26T03:14:17.400Z,96097.78
2022-09-26T03:19:27.487Z,96083.91
2022-09-26T03:24:30.208Z,96070.16
2022-09-26T03:29:34.246Z,96043.97
2022-09-26T03:34:39.837Z,96005.03
2022-09-26T03:39:42.631Z,95994.59
2022-09-26T03:45:17.380Z,95962.16
2022-09-26T03:50:50.346Z,95958.00
2022-09-26T03:55:53.068Z,95934.47
2022-09-26T04:00:55.812Z,95909.13
2022-09-26T04:05:59.857Z,95867.63
2022-09-26T04:11:03.647Z,95851.16
2022-09-26T04:16:07.510Z,95815.72
2022-09-26T04:21:14.029Z,95784.25
2022-09-26T04:26:23.447Z,95749.19
2022-09-26T04:31:28.456Z,95705.47
2022-09-26T04:36:39.606Z,95668.66
2022-09-26T04:41:42.234Z,95631.63
2022-09-26T04:46:45.037Z,95640.66
2022-09-26T04:51:49.787Z,95600.69
2022-09-26T04:56:52.619Z,95572.69
2022-09-26T05:01:56.177Z,95573.63
2022-09-26T05:07:14.183Z,95552.47
2022-09-26T05:12:18.110Z,95560.47
2022-09-26T05:17:24.219Z,95565.84
2022-09-26T05:22:32.540Z,95531.31
2022-09-26T05:27:35.569Z,95531.31
2022-09-26T05:32:39.077Z,95550.81
2022-09-26T05:37:43.111Z,95541.03
2022-09-26T05:42:47.191Z,95516.25
2022-09-26T05:47:49.940Z,95516.34
2022-09-26T05:52:57.949Z,95525.09
2022-09-26T05:58:01.221Z,95503.94
2022-09-26T06:03:27.752Z,95483.41
2022-09-26T06:08:43.965Z,95470.03
2022-09-26T06:14:08.193Z,95469.09
2022-09-26T06:19:10.900Z,95449.59
2022-09-26T06:24:15.190Z,95435.28
2022-09-26T06:29:18.899Z,95414.03
2022-09-26T06:34:22.697Z,95410.50
2022-09-26T06:39:35.464Z,95399.81
2022-09-26T06:44:38.143Z,95372.97
2022-09-26T06:49:50.464Z,95386.47
2022-09-26T06:55:08.434Z,95395.19
2022-09-26T07:00:12.732Z,95365.78
2022-09-26T07:05:55.487Z,95369.66
2022-09-26T07:11:21.247Z,95359.88
2022-09-26T07:16:24.654Z,95364.31
2022-09-26T07:21:34.656Z,95359.00
2022-09-26T07:26:47.120Z,95350.00
2022-09-26T07:31:49.916Z,95324.94
2022-09-26T07:37:13.004Z,95296.66
2022-09-26T07:42:17.264Z,95317.81
2022-09-26T07:47:37.573Z,95338.81
2022-09-26T07:52:47.425Z,95396.56
2022-09-26T07:57:59.194Z,95442.16
2022-09-26T08:03:11.959Z,95495.16
2022-09-26T08:08:15.220Z,95618.19
2022-09-26T08:13:39.427Z,95700.31
2022-09-26T08:19:01.632Z,95751.25
2022-09-26T08:24:04.863Z,95852.09
2022-09-26T08:29:12.356Z,95948.25
2022-09-26T08:34:16.057Z,96021.84
2022-09-26T08:39:23.170Z,96104.72
2022-09-26T08:45:02.409Z,96215.44
2022-09-26T08:50:21.865Z,96299.16
2022-09-26T08:55:26.916Z,96343.66
2022-09-26T09:00:33.309Z,96412.41
2022-09-26T09:05:43.686Z,96457.84
2022-09-26T09:10:48.287Z,96508.31
2022-09-26T09:16:12.096Z,96578.88
2022-09-26T09:21:42.612Z,96626.66
2022-09-26T09:32:41.918Z,96655.69
2022-09-26T09:37:53.478Z,96675.34
2022-09-26T09:43:15.261Z,96641.81
2022-09-26T09:48:19.786Z,96654.53
2022-09-26T09:53:55.208Z,96598.63
2022-09-26T09:59:12.472Z,96524.97
2022-09-26T10:04:37.771Z,96448.50
2022-09-26T10:09:42.129Z,96423.84
2022-09-26T10:15:06.615Z,96361.22
2022-09-26T10:20:42.232Z,96324.50
2022-09-26T10:25:49.580Z,96288.56
2022-09-26T10:30:55.464Z,96243.09
2022-09-26T10:36:10.859Z,96175.22
2022-09-26T10:41:24.509Z,96124.47
2022-09-26T10:46:30.235Z,96116.94
2022-09-26T10:52:04.479Z,96039.06
2022-09-26T10:57:09.479Z,96027.13
2022-09-26T11:02:19.909Z,95986.28
2022-09-26T11:07:26.887Z,95949.00
2022-09-26T11:12:59.875Z,95885.16
2022-09-26T11:18:03.161Z,95847.31
2022-09-26T11:23:14.561Z,95822.03
2022-09-26T11:28:23.742Z,95798.56
2022-09-26T11:33:47.179Z,95782.69
2022-09-26T11:39:42.138Z,95752.38
2022-09-26T11:44:56.776Z,95755.13
2022-09-26T11:50:27.070Z,95737.66
2022-09-26T11:55:57.264Z,95735.59
2022-09-26T12:01:10.331Z,95752.69
2022-09-26T12:06:20.983Z,95783.97
2022-09-26T12:11:32.724Z,95784.41
2022-09-26T12:16:42.309Z,95787.00
2022-09-26T12:22:06.173Z,95795.03
2022-09-26T12:27:16.271Z,95796.88
2022-09-26T12:32:33.864Z,95794.66
2022-09-26T12:37:52.831Z,95824.78
2022-09-26T12:43:28.033Z,95803.06
2022-09-26T12:48:38.625Z,95793.53
2022-09-26T12:54:04.756Z,95814.38
2022-09-26T12:59:19.487Z,95879.53
2022-09-26T13:04:44.310Z,95891.72
2022-09-26T13:10:08.876Z,95923.16
2022-09-26T13:15:23.055Z,95986.53
2022-09-26T13:20:29.736Z,96024.13
2022-09-26T13:25:35.631Z,96094.00
2022-09-26T13:30:42.958Z,96145.72
2022-09-26T13:35:47.112Z,96188.44
2022-09-26T13:40:54.823Z,96244.81
2022-09-26T13:46:03.553Z,96285.25
2022-09-26T13:51:11.132Z,96325.69
2022-09-26T13:56:50.891Z,96379.63
2022-09-26T14:02:17.975Z,96414.81
2022-09-26T14:07:41.690Z,96433.97
2022-09-26T14:12:56.886Z,96437.25
2022-09-26T14:18:27.712Z,96371.88
2022-09-26T14:23:43.108Z,96382.22
2022-09-26T14:28:53.576Z,96364.84
2022-09-26T14:34:16.448Z,96313.78
2022-09-26T14:39:38.702Z,96257.38
2022-09-26T14:44:49.140Z,96203.75
2022-09-26T14:50:14.867Z,96151.69
2022-09-26T14:55:19.190Z,96112.16
2022-09-26T15:00:37.210Z,96045.03
2022-09-26T15:05:43.225Z,96027.97
2022-09-26T15:10:46.563Z,95977.03
2022-09-26T15:15:53.169Z,95939.53
2022-09-26T15:21:04.214Z,95871.06
2022-09-26T15:26:07.375Z,95845.19
2022-09-26T15:31:20.954Z,95789.63
2022-09-26T15:36:29.119Z,95752.25
2022-09-26T15:41:49.396Z,95723.16
2022-09-26T15:46:52.190Z,95693.41
2022-09-26T15:51:56.912Z,95673.31
2022-09-26T15:57:02.004Z,95628.47
2022-09-26T16:02:04.930Z,95595.44
2022-09-26T16:07:18.938Z,95535.13
2022-09-26T16:12:23.555Z,95491.22
2022-09-26T16:17:28.834Z,95444.56
2022-09-26T16:22:40.320Z,95422.22
2022-09-26T16:27:43.689Z,95371.34
2022-09-26T16:32:46.288Z,95335.50
2022-09-26T16:37:59.424Z,95287.44
2022-09-26T16:43:03.600Z,95233.16
2022-09-26T16:48:06.411Z,95194.81
2022-09-26T16:53:11.830Z,95153.31
2022-09-26T16:58:15.927Z,95128.25
2022-09-26T17:03:22.821Z,95075.84
2022-09-26T17:08:27.908Z,95061.38
2022-09-26T17:13:33.045Z,95032.59
2022-09-26T17:18:39.565Z,94997.44
2022-09-26T17:23:43.366Z,94942.97
2022-09-26T17:28:46.096Z,94937.78
2022-09-26T17:33:51.348Z,94908.91
2022-09-26T17:38:59.116Z,94905.34
2022-09-26T17:44:01.702Z,94893.09
2022-09-26T17:49:06.493Z,94876.59
2022-09-26T17:54:15.991Z,94865.97
2022-09-26T17:59:23.207Z,94866.34
2022-09-26T18:04:28.193Z,94831.50
2022-09-26T18:09:34.089Z,94782.72
2022-09-26T18:14:38.613Z,94734.44
2022-09-26T18:19:43.625Z,94713.16
2022-09-26T18:24:50.724Z,94656.13
2022-09-26T18:29:53.510Z,94621.13
2022-09-26T18:34:56.137Z,94587.25
2022-09-26T18:40:03.785Z,94545.91
2022-09-26T18:45:08.547Z,94506.75
2022-09-26T18:50:20.697Z,94432.38
2022-09-26T18:55:44.081Z,94376.88
2022-09-26T19:00:48.542Z,94346.16
2022-09-26T19:05:51.742Z,94344.78
2022-09-26T19:10:55.904Z,94311.34
2022-09-26T19:15:58.545Z,94284.44
2022-09-26T19:21:05.344Z,94275.78
2022-09-26T19:26:13.615Z,94250.44
2022-09-26T19:31:16.399Z,94230.47
2022-09-26T19:36:19.496Z,94211.31
2022-09-26T19:41:23.556Z,94199.09
2022-09-26T19:46:28.179Z,94161.91
2022-09-26T19:51:30.947Z,94160.47
2022-09-26T19:56:35.232Z,94138.41
2022-09-26T20:01:38.554Z,94133.03
2022-09-26T20:06:41.215Z,94123.56
2022-09-26T20:11:45.790Z,94105.13
2022-09-26T20:16:49.789Z,94089.16
2022-09-26T20:21:52.404Z,94073.31
2022-09-26T20:26:56.420Z,94072.47
2022-09-26T20:32:00.949Z,94062.50
2022-09-26T20:37:03.970Z,94032.22
2022-09-26T20:42:08.770Z,94021.91
2022-09-26T20:47:14.461Z,94005.28
2022-09-26T20:52:19.618Z,93983.94
2022-09-26T20:57:23.776Z,93982.84
2022-09-26T21:02:28.838Z,93968.94
2022-09-26T21:07:32.364Z,93986.97
2022-09-26T21:12:36.313Z,93983.59
2022-09-26T21:17:39.012Z,93941.69
2022-09-26T21:22:41.631Z,93890.38
2022-09-26T21:27:45.906Z,93861.34
2022-09-26T21:32:49.879Z,93821.50
2022-09-26T21:37:53.818Z,93767.13
2022-09-26T21:43:07.249Z,93641.13
2022-09-26T21:48:09.965Z,93605.06
2022-09-26T21:53:16.367Z,93586.75
2022-09-26T21:58:20.707Z,93563.72
2022-09-26T22:03:23.319Z,93529.41
2022-09-26T22:08:25.911Z,93483.25
2022-09-26T22:13:29.870Z,93440.84
2022-09-26T22:18:33.958Z,93379.72
2022-09-26T22:23:36.767Z,93335.72
2022-09-26T22:28:40.748Z,93291.38
2022-09-26T22:33:43.444Z,93251.81
2022-09-26T22:38:46.243Z,93240.19
2022-09-26T22:43:50.169Z,93202.78
2022-09-26T22:48:52.764Z,93249.41
2022-09-26T22:53:55.521Z,93232.91
2022-09-26T22:58:59.464Z,93227.09
2022-09-26T23:04:02.491Z,93248.22
2022-09-26T23:09:05.141Z,93220.00
2022-09-26T23:14:09.267Z,93372.56
2022-09-26T23:19:11.932Z,93424.63
2022-09-26T23:24:14.566Z,93398.00
2022-09-26T23:29:18.534Z,93340.16
2022-09-26T23:34:21.259Z,93307.94
2022-09-26T23:39:23.862Z,93224.97
2022-09-26T23:44:27.810Z,93190.06
2022-09-26T23:49:30.506Z,93171.88
2022-09-26T23:54:33.114Z,93139.63
2022-09-26T23:59:37.065Z,93168.19
